sensor_id;sensor_type;location;lat;lon;timestamp;P1;durP1;ratioP1;P2;durP2;ratioP2
17059;SDS011;8646;49.716;9.266;2023-02-03T00:02:11;8.77;;;2.87;;
17059;SDS011;8646;49.716;9.266;2023-02-03T00:05:14;9.07;;;2.90;;
17059;SDS011;8646;49.716;9.266;2023-02-03T00:08:18;7.80;;;2.80;;
17059;SDS011;8646;49.716;9.266;2023-02-03T00:11:22;9.73;;;3.17;;
17059;SDS011;8646;49.716;9.266;2023-02-03T00:14:25;7.27;;;2.77;;
17059;SDS011;8646;49.716;9.266;2023-02-03T00:17:28;8.60;;;2.90;;
17059;SDS011;8646;49.716;9.266;2023-02-03T00:20:30;8.13;;;3.20;;
17059;SDS011;8646;49.716;9.266;2023-02-03T00:23:35;8.67;;;3.20;;
17059;SDS011;8646;49.716;9.266;2023-02-03T00:26:40;7.73;;;3.57;;
17059;SDS011;8646;49.716;9.266;2023-02-03T00:29:43;12.17;;;3.17;;
17059;SDS011;8646;49.716;9.266;2023-02-03T00:32:46;7.97;;;2.83;;
17059;SDS011;8646;49.716;9.266;2023-02-03T00:35:49;8.93;;;3.30;;
17059;SDS011;8646;49.716;9.266;2023-02-03T00:38:53;11.43;;;3.20;;
17059;SDS011;8646;49.716;9.266;2023-02-03T00:41:55;8.47;;;3.07;;
17059;SDS011;8646;49.716;9.266;2023-02-03T00:44:58;7.33;;;2.80;;
17059;SDS011;8646;49.716;9.266;2023-02-03T00:48:01;10.30;;;3.27;;
17059;SDS011;8646;49.716;9.266;2023-02-03T00:51:04;8.57;;;2.87;;
17059;SDS011;8646;49.716;9.266;2023-02-03T00:54:08;8.23;;;2.87;;
17059;SDS011;8646;49.716;9.266;2023-02-03T00:57:11;10.73;;;3.30;;
17059;SDS011;8646;49.716;9.266;2023-02-03T01:00:14;7.37;;;3.00;;
17059;SDS011;8646;49.716;9.266;2023-02-03T01:03:18;6.23;;;2.90;;
17059;SDS011;8646;49.716;9.266;2023-02-03T01:06:21;9.67;;;2.80;;
17059;SDS011;8646;49.716;9.266;2023-02-03T01:09:25;7.37;;;2.83;;
17059;SDS011;8646;49.716;9.266;2023-02-03T01:12:29;10.93;;;2.97;;
17059;SDS011;8646;49.716;9.266;2023-02-03T01:15:32;6.63;;;2.50;;
17059;SDS011;8646;49.716;9.266;2023-02-03T01:18:35;9.77;;;2.70;;
17059;SDS011;8646;49.716;9.266;2023-02-03T01:21:38;8.00;;;2.83;;
17059;SDS011;8646;49.716;9.266;2023-02-03T01:24:42;8.10;;;2.63;;
17059;SDS011;8646;49.716;9.266;2023-02-03T01:27:44;6.83;;;2.47;;
17059;SDS011;8646;49.716;9.266;2023-02-03T01:30:47;9.27;;;2.37;;
17059;SDS011;8646;49.716;9.266;2023-02-03T01:33:50;6.50;;;2.50;;
17059;SDS011;8646;49.716;9.266;2023-02-03T01:36:54;10.13;;;2.53;;
17059;SDS011;8646;49.716;9.266;2023-02-03T01:39:58;5.77;;;2.57;;
17059;SDS011;8646;49.716;9.266;2023-02-03T01:43:01;9.47;;;2.70;;
17059;SDS011;8646;49.716;9.266;2023-02-03T01:46:05;5.93;;;2.40;;
17059;SDS011;8646;49.716;9.266;2023-02-03T01:49:34;7.17;;;2.90;;
17059;SDS011;8646;49.716;9.266;2023-02-03T01:52:38;8.87;;;2.70;;
17059;SDS011;8646;49.716;9.266;2023-02-03T01:55:44;7.10;;;2.50;;
17059;SDS011;8646;49.716;9.266;2023-02-03T01:58:49;6.47;;;2.77;;
17059;SDS011;8646;49.716;9.266;2023-02-03T02:01:53;5.47;;;2.60;;
17059;SDS011;8646;49.716;9.266;2023-02-03T02:05:10;7.17;;;2.60;;
17059;SDS011;8646;49.716;9.266;2023-02-03T02:08:17;7.27;;;2.60;;
17059;SDS011;8646;49.716;9.266;2023-02-03T02:11:22;6.90;;;2.40;;
17059;SDS011;8646;49.716;9.266;2023-02-03T02:14:25;5.80;;;2.67;;
17059;SDS011;8646;49.716;9.266;2023-02-03T02:17:37;5.33;;;2.60;;
17059;SDS011;8646;49.716;9.266;2023-02-03T02:21:18;6.03;;;2.60;;
17059;SDS011;8646;49.716;9.266;2023-02-03T02:24:49;5.43;;;2.20;;
17059;SDS011;8646;49.716;9.266;2023-02-03T02:32:14;6.97;;;2.53;;
17059;SDS011;8646;49.716;9.266;2023-02-03T02:35:28;6.53;;;2.63;;
17059;SDS011;8646;49.716;9.266;2023-02-03T02:38:44;6.13;;;2.00;;
17059;SDS011;8646;49.716;9.266;2023-02-03T02:41:59;5.70;;;2.33;;
17059;SDS011;8646;49.716;9.266;2023-02-03T02:45:09;7.77;;;2.40;;
17059;SDS011;8646;49.716;9.266;2023-02-03T02:48:25;6.67;;;2.40;;
17059;SDS011;8646;49.716;9.266;2023-02-03T02:51:34;6.43;;;2.20;;
17059;SDS011;8646;49.716;9.266;2023-02-03T02:54:40;5.67;;;2.30;;
17059;SDS011;8646;49.716;9.266;2023-02-03T02:57:55;4.50;;;2.20;;
17059;SDS011;8646;49.716;9.266;2023-02-03T03:01:03;4.67;;;1.80;;
17059;SDS011;8646;49.716;9.266;2023-02-03T03:04:10;4.67;;;1.90;;
17059;SDS011;8646;49.716;9.266;2023-02-03T03:07:21;4.13;;;1.83;;
17059;SDS011;8646;49.716;9.266;2023-02-03T03:10:27;4.20;;;1.90;;
17059;SDS011;8646;49.716;9.266;2023-02-03T03:13:34;5.20;;;1.80;;
17059;SDS011;8646;49.716;9.266;2023-02-03T03:16:41;4.43;;;1.90;;
17059;SDS011;8646;49.716;9.266;2023-02-03T03:20:00;5.30;;;1.90;;
17059;SDS011;8646;49.716;9.266;2023-02-03T03:23:09;4.17;;;1.70;;
17059;SDS011;8646;49.716;9.266;2023-02-03T03:26:20;4.73;;;1.90;;
17059;SDS011;8646;49.716;9.266;2023-02-03T03:29:29;4.70;;;1.90;;
17059;SDS011;8646;49.716;9.266;2023-02-03T03:32:35;4.40;;;1.87;;
17059;SDS011;8646;49.716;9.266;2023-02-03T03:35:41;4.47;;;2.10;;
17059;SDS011;8646;49.716;9.266;2023-02-03T03:38:52;6.13;;;2.10;;
17059;SDS011;8646;49.716;9.266;2023-02-03T03:42:04;3.30;;;1.87;;
17059;SDS011;8646;49.716;9.266;2023-02-03T03:45:12;4.27;;;1.70;;
17059;SDS011;8646;49.716;9.266;2023-02-03T03:48:22;3.63;;;1.60;;
17059;SDS011;8646;49.716;9.266;2023-02-03T03:51:33;3.87;;;1.70;;
17059;SDS011;8646;49.716;9.266;2023-02-03T03:54:38;2.37;;;1.60;;
17059;SDS011;8646;49.716;9.266;2023-02-03T03:57:45;4.53;;;1.70;;
17059;SDS011;8646;49.716;9.266;2023-02-03T04:00:56;2.77;;;1.50;;
17059;SDS011;8646;49.716;9.266;2023-02-03T04:04:04;3.37;;;1.73;;
17059;SDS011;8646;49.716;9.266;2023-02-03T04:07:15;2.57;;;1.30;;
17059;SDS011;8646;49.716;9.266;2023-02-03T04:10:24;1.93;;;1.20;;
17059;SDS011;8646;49.716;9.266;2023-02-03T04:13:32;3.77;;;1.50;;
17059;SDS011;8646;49.716;9.266;2023-02-03T04:16:35;2.50;;;1.30;;
17059;SDS011;8646;49.716;9.266;2023-02-03T04:19:39;5.20;;;1.60;;
17059;SDS011;8646;49.716;9.266;2023-02-03T04:22:43;1.60;;;1.20;;
17059;SDS011;8646;49.716;9.266;2023-02-03T04:25:48;4.30;;;1.50;;
17059;SDS011;8646;49.716;9.266;2023-02-03T04:28:51;1.97;;;1.30;;
17059;SDS011;8646;49.716;9.266;2023-02-03T04:31:53;2.30;;;1.23;;
17059;SDS011;8646;49.716;9.266;2023-02-03T04:34:56;4.63;;;1.37;;
17059;SDS011;8646;49.716;9.266;2023-02-03T04:38:00;4.43;;;1.03;;
17059;SDS011;8646;49.716;9.266;2023-02-03T04:41:03;2.67;;;1.20;;
17059;SDS011;8646;49.716;9.266;2023-02-03T04:44:08;3.17;;;0.90;;
17059;SDS011;8646;49.716;9.266;2023-02-03T04:47:10;1.63;;;1.07;;
17059;SDS011;8646;49.716;9.266;2023-02-03T04:50:13;4.23;;;1.00;;
17059;SDS011;8646;49.716;9.266;2023-02-03T04:53:18;4.17;;;1.00;;
17059;SDS011;8646;49.716;9.266;2023-02-03T04:56:20;2.47;;;1.10;;
17059;SDS011;8646;49.716;9.266;2023-02-03T04:59:23;2.90;;;1.27;;
17059;SDS011;8646;49.716;9.266;2023-02-03T05:02:26;2.27;;;1.30;;
17059;SDS011;8646;49.716;9.266;2023-02-03T05:05:29;1.30;;;1.10;;
17059;SDS011;8646;49.716;9.266;2023-02-03T05:08:41;1.83;;;1.40;;
17059;SDS011;8646;49.716;9.266;2023-02-03T05:11:43;1.70;;;1.33;;
17059;SDS011;8646;49.716;9.266;2023-02-03T05:14:46;3.07;;;1.40;;
17059;SDS011;8646;49.716;9.266;2023-02-03T05:17:51;3.63;;;1.67;;
17059;SDS011;8646;49.716;9.266;2023-02-03T05:20:54;3.77;;;1.70;;
17059;SDS011;8646;49.716;9.266;2023-02-03T05:24:02;3.87;;;1.70;;
17059;SDS011;8646;49.716;9.266;2023-02-03T05:27:08;4.93;;;1.40;;
17059;SDS011;8646;49.716;9.266;2023-02-03T05:30:11;8.10;;;1.80;;
17059;SDS011;8646;49.716;9.266;2023-02-03T05:33:14;2.97;;;1.80;;
17059;SDS011;8646;49.716;9.266;2023-02-03T05:36:17;2.37;;;1.70;;
17059;SDS011;8646;49.716;9.266;2023-02-03T05:39:25;6.57;;;2.03;;
17059;SDS011;8646;49.716;9.266;2023-02-03T05:42:27;6.87;;;1.90;;
17059;SDS011;8646;49.716;9.266;2023-02-03T05:45:30;2.97;;;1.50;;
17059;SDS011;8646;49.716;9.266;2023-02-03T05:48:33;5.53;;;1.83;;
17059;SDS011;8646;49.716;9.266;2023-02-03T05:51:39;4.03;;;1.80;;
17059;SDS011;8646;49.716;9.266;2023-02-03T05:54:43;5.43;;;1.90;;
17059;SDS011;8646;49.716;9.266;2023-02-03T05:57:46;4.90;;;1.83;;
17059;SDS011;8646;49.716;9.266;2023-02-03T06:00:51;3.57;;;1.90;;
17059;SDS011;8646;49.716;9.266;2023-02-03T06:03:57;5.87;;;2.30;;
17059;SDS011;8646;49.716;9.266;2023-02-03T06:07:00;2.80;;;2.03;;
17059;SDS011;8646;49.716;9.266;2023-02-03T06:10:07;5.23;;;2.10;;
17059;SDS011;8646;49.716;9.266;2023-02-03T06:13:11;7.80;;;2.60;;
17059;SDS011;8646;49.716;9.266;2023-02-03T06:16:15;3.73;;;2.03;;
17059;SDS011;8646;49.716;9.266;2023-02-03T06:19:21;3.67;;;1.93;;
17059;SDS011;8646;49.716;9.266;2023-02-03T06:22:24;3.63;;;1.87;;
17059;SDS011;8646;49.716;9.266;2023-02-03T06:25:34;4.33;;;2.10;;
17059;SDS011;8646;49.716;9.266;2023-02-03T06:28:37;3.53;;;1.93;;
17059;SDS011;8646;49.716;9.266;2023-02-03T06:31:40;3.97;;;1.83;;
17059;SDS011;8646;49.716;9.266;2023-02-03T06:34:43;3.53;;;2.00;;
17059;SDS011;8646;49.716;9.266;2023-02-03T06:37:46;5.47;;;1.93;;
17059;SDS011;8646;49.716;9.266;2023-02-03T06:40:51;3.40;;;1.90;;
17059;SDS011;8646;49.716;9.266;2023-02-03T06:43:56;4.40;;;1.87;;
17059;SDS011;8646;49.716;9.266;2023-02-03T06:46:59;4.53;;;1.90;;
17059;SDS011;8646;49.716;9.266;2023-02-03T06:50:03;4.10;;;1.73;;
17059;SDS011;8646;49.716;9.266;2023-02-03T06:53:06;5.90;;;1.90;;
17059;SDS011;8646;49.716;9.266;2023-02-03T06:56:10;3.90;;;2.17;;
17059;SDS011;8646;49.716;9.266;2023-02-03T06:59:12;3.27;;;1.80;;
17059;SDS011;8646;49.716;9.266;2023-02-03T07:02:15;2.60;;;1.80;;
17059;SDS011;8646;49.716;9.266;2023-02-03T07:05:22;4.83;;;2.40;;
17059;SDS011;8646;49.716;9.266;2023-02-03T07:08:26;8.13;;;1.80;;
17059;SDS011;8646;49.716;9.266;2023-02-03T07:11:41;3.77;;;2.03;;
17059;SDS011;8646;49.716;9.266;2023-02-03T07:14:44;4.67;;;2.10;;
17059;SDS011;8646;49.716;9.266;2023-02-03T07:17:46;7.20;;;2.10;;
17059;SDS011;8646;49.716;9.266;2023-02-03T07:20:57;6.10;;;2.50;;
17059;SDS011;8646;49.716;9.266;2023-02-03T07:24:04;4.37;;;2.37;;
17059;SDS011;8646;49.716;9.266;2023-02-03T07:27:08;3.97;;;2.20;;
17059;SDS011;8646;49.716;9.266;2023-02-03T07:30:11;4.93;;;2.27;;
17059;SDS011;8646;49.716;9.266;2023-02-03T07:33:14;4.20;;;1.97;;
17059;SDS011;8646;49.716;9.266;2023-02-03T07:36:17;5.53;;;2.37;;
17059;SDS011;8646;49.716;9.266;2023-02-03T07:39:20;6.07;;;2.20;;
17059;SDS011;8646;49.716;9.266;2023-02-03T07:42:24;6.07;;;2.37;;
17059;SDS011;8646;49.716;9.266;2023-02-03T07:45:27;3.73;;;2.00;;
17059;SDS011;8646;49.716;9.266;2023-02-03T07:48:29;5.03;;;1.90;;
17059;SDS011;8646;49.716;9.266;2023-02-03T07:51:32;4.10;;;2.00;;
17059;SDS011;8646;49.716;9.266;2023-02-03T07:54:37;5.57;;;2.03;;
17059;SDS011;8646;49.716;9.266;2023-02-03T07:57:42;4.50;;;1.80;;
17059;SDS011;8646;49.716;9.266;2023-02-03T08:00:45;5.93;;;2.00;;
17059;SDS011;8646;49.716;9.266;2023-02-03T08:03:48;4.73;;;1.80;;
17059;SDS011;8646;49.716;9.266;2023-02-03T08:06:55;5.00;;;1.80;;
17059;SDS011;8646;49.716;9.266;2023-02-03T08:10:02;6.33;;;2.00;;
17059;SDS011;8646;49.716;9.266;2023-02-03T08:13:09;4.30;;;1.63;;
17059;SDS011;8646;49.716;9.266;2023-02-03T08:16:12;2.07;;;1.33;;
17059;SDS011;8646;49.716;9.266;2023-02-03T08:19:15;2.20;;;1.40;;
17059;SDS011;8646;49.716;9.266;2023-02-03T08:22:17;5.03;;;1.70;;
17059;SDS011;8646;49.716;9.266;2023-02-03T08:25:20;4.97;;;1.70;;
17059;SDS011;8646;49.716;9.266;2023-02-03T08:28:24;4.07;;;1.40;;
17059;SDS011;8646;49.716;9.266;2023-02-03T08:31:27;4.50;;;2.00;;
17059;SDS011;8646;49.716;9.266;2023-02-03T08:34:30;3.90;;;1.60;;
17059;SDS011;8646;49.716;9.266;2023-02-03T08:37:34;6.57;;;1.80;;
17059;SDS011;8646;49.716;9.266;2023-02-03T08:40:39;4.37;;;1.60;;
17059;SDS011;8646;49.716;9.266;2023-02-03T08:43:43;4.50;;;1.73;;
17059;SDS011;8646;49.716;9.266;2023-02-03T08:46:48;2.40;;;1.50;;
17059;SDS011;8646;49.716;9.266;2023-02-03T08:49:54;2.50;;;1.43;;
17059;SDS011;8646;49.716;9.266;2023-02-03T08:52:56;2.90;;;1.60;;
17059;SDS011;8646;49.716;9.266;2023-02-03T08:56:02;3.07;;;1.90;;
17059;SDS011;8646;49.716;9.266;2023-02-03T08:59:07;5.03;;;1.60;;
17059;SDS011;8646;49.716;9.266;2023-02-03T09:02:10;3.60;;;1.50;;
17059;SDS011;8646;49.716;9.266;2023-02-03T09:05:16;3.40;;;1.87;;
17059;SDS011;8646;49.716;9.266;2023-02-03T09:08:19;4.93;;;1.83;;
17059;SDS011;8646;49.716;9.266;2023-02-03T09:11:25;6.13;;;2.73;;
17059;SDS011;8646;49.716;9.266;2023-02-03T09:14:36;2.87;;;1.60;;
17059;SDS011;8646;49.716;9.266;2023-02-03T09:17:39;5.60;;;2.90;;
17059;SDS011;8646;49.716;9.266;2023-02-03T09:20:43;3.07;;;1.40;;
17059;SDS011;8646;49.716;9.266;2023-02-03T09:23:58;4.27;;;1.67;;
17059;SDS011;8646;49.716;9.266;2023-02-03T09:27:02;2.37;;;1.20;;
17059;SDS011;8646;49.716;9.266;2023-02-03T09:30:06;3.00;;;1.37;;
17059;SDS011;8646;49.716;9.266;2023-02-03T09:33:10;2.53;;;1.53;;
17059;SDS011;8646;49.716;9.266;2023-02-03T09:36:16;5.47;;;1.70;;
17059;SDS011;8646;49.716;9.266;2023-02-03T09:39:27;3.67;;;1.60;;
17059;SDS011;8646;49.716;9.266;2023-02-03T09:42:48;4.30;;;1.40;;
17059;SDS011;8646;49.716;9.266;2023-02-03T09:46:16;4.63;;;1.50;;
17059;SDS011;8646;49.716;9.266;2023-02-03T09:49:23;2.90;;;1.87;;
17059;SDS011;8646;49.716;9.266;2023-02-03T09:52:29;1.47;;;1.17;;
17059;SDS011;8646;49.716;9.266;2023-02-03T09:55:42;2.23;;;1.20;;
17059;SDS011;8646;49.716;9.266;2023-02-03T09:58:47;5.70;;;1.40;;
17059;SDS011;8646;49.716;9.266;2023-02-03T10:01:54;3.13;;;1.27;;
17059;SDS011;8646;49.716;9.266;2023-02-03T10:05:05;2.97;;;1.20;;
17059;SDS011;8646;49.716;9.266;2023-02-03T10:08:31;3.80;;;1.10;;
17059;SDS011;8646;49.716;9.266;2023-02-03T10:11:49;2.63;;;1.10;;
17059;SDS011;8646;49.716;9.266;2023-02-03T10:15:26;1.83;;;1.03;;
17059;SDS011;8646;49.716;9.266;2023-02-03T10:18:54;2.53;;;1.07;;
17059;SDS011;8646;49.716;9.266;2023-02-03T10:22:04;2.47;;;0.90;;
17059;SDS011;8646;49.716;9.266;2023-02-03T10:25:14;3.53;;;1.17;;
17059;SDS011;8646;49.716;9.266;2023-02-03T10:28:26;2.50;;;1.07;;
17059;SDS011;8646;49.716;9.266;2023-02-03T10:31:33;1.83;;;1.20;;
17059;SDS011;8646;49.716;9.266;2023-02-03T10:34:45;4.80;;;1.87;;
17059;SDS011;8646;49.716;9.266;2023-02-03T10:37:49;8.83;;;5.33;;
17059;SDS011;8646;49.716;9.266;2023-02-03T10:41:02;4.90;;;1.73;;
17059;SDS011;8646;49.716;9.266;2023-02-03T10:44:05;6.00;;;3.17;;
17059;SDS011;8646;49.716;9.266;2023-02-03T10:47:23;3.23;;;1.13;;
17059;SDS011;8646;49.716;9.266;2023-02-03T10:50:29;12.03;;;6.73;;
17059;SDS011;8646;49.716;9.266;2023-02-03T10:53:34;6.73;;;3.20;;
17059;SDS011;8646;49.716;9.266;2023-02-03T10:56:38;4.10;;;1.50;;
17059;SDS011;8646;49.716;9.266;2023-02-03T10:59:42;2.13;;;0.73;;
17059;SDS011;8646;49.716;9.266;2023-02-03T11:03:02;2.97;;;1.00;;
17059;SDS011;8646;49.716;9.266;2023-02-03T11:06:10;3.70;;;1.77;;
17059;SDS011;8646;49.716;9.266;2023-02-03T11:09:20;2.57;;;0.90;;
17059;SDS011;8646;49.716;9.266;2023-02-03T11:12:29;2.77;;;0.90;;
17059;SDS011;8646;49.716;9.266;2023-02-03T11:15:32;3.30;;;0.73;;
17059;SDS011;8646;49.716;9.266;2023-02-03T11:18:46;4.13;;;1.10;;
17059;SDS011;8646;49.716;9.266;2023-02-03T11:21:54;3.60;;;0.87;;
17059;SDS011;8646;49.716;9.266;2023-02-03T11:25:01;1.27;;;0.43;;
17059;SDS011;8646;49.716;9.266;2023-02-03T11:28:09;3.33;;;0.77;;
17059;SDS011;8646;49.716;9.266;2023-02-03T11:31:16;2.93;;;0.80;;
17059;SDS011;8646;49.716;9.266;2023-02-03T11:34:23;3.50;;;0.97;;
17059;SDS011;8646;49.716;9.266;2023-02-03T11:37:31;4.50;;;0.90;;
17059;SDS011;8646;49.716;9.266;2023-02-03T11:40:36;1.93;;;0.73;;
17059;SDS011;8646;49.716;9.266;2023-02-03T11:43:41;1.63;;;0.90;;
17059;SDS011;8646;49.716;9.266;2023-02-03T11:46:44;1.33;;;0.70;;
17059;SDS011;8646;49.716;9.266;2023-02-03T11:49:55;4.30;;;1.07;;
17059;SDS011;8646;49.716;9.266;2023-02-03T11:57:01;4.33;;;1.20;;
17059;SDS011;8646;49.716;9.266;2023-02-03T12:00:24;4.23;;;0.90;;
17059;SDS011;8646;49.716;9.266;2023-02-03T12:07:10;2.10;;;0.80;;
17059;SDS011;8646;49.716;9.266;2023-02-03T12:10:34;1.80;;;0.80;;
17059;SDS011;8646;49.716;9.266;2023-02-03T12:13:54;1.27;;;0.53;;
17059;SDS011;8646;49.716;9.266;2023-02-03T12:17:17;1.53;;;0.63;;
17059;SDS011;8646;49.716;9.266;2023-02-03T12:20:36;1.10;;;0.60;;
17059;SDS011;8646;49.716;9.266;2023-02-03T12:23:48;1.00;;;0.53;;
17059;SDS011;8646;49.716;9.266;2023-02-03T12:27:03;1.53;;;0.90;;
17059;SDS011;8646;49.716;9.266;2023-02-03T12:30:26;1.10;;;0.53;;
17059;SDS011;8646;49.716;9.266;2023-02-03T12:33:37;2.63;;;0.50;;
17059;SDS011;8646;49.716;9.266;2023-02-03T12:36:47;1.83;;;0.67;;
17059;SDS011;8646;49.716;9.266;2023-02-03T12:39:55;1.03;;;0.50;;
17059;SDS011;8646;49.716;9.266;2023-02-03T12:43:16;0.80;;;0.50;;
17059;SDS011;8646;49.716;9.266;2023-02-03T12:46:25;1.13;;;0.70;;
17059;SDS011;8646;49.716;9.266;2023-02-03T12:49:33;1.33;;;0.50;;
17059;SDS011;8646;49.716;9.266;2023-02-03T12:52:43;1.63;;;0.80;;
17059;SDS011;8646;49.716;9.266;2023-02-03T12:55:51;1.67;;;0.60;;
17059;SDS011;8646;49.716;9.266;2023-02-03T12:59:04;3.80;;;1.40;;
17059;SDS011;8646;49.716;9.266;2023-02-03T13:02:13;3.47;;;1.53;;
17059;SDS011;8646;49.716;9.266;2023-02-03T13:05:23;1.23;;;0.60;;
17059;SDS011;8646;49.716;9.266;2023-02-03T13:08:31;1.80;;;0.77;;
17059;SDS011;8646;49.716;9.266;2023-02-03T13:11:39;2.13;;;0.93;;
17059;SDS011;8646;49.716;9.266;2023-02-03T13:14:51;1.33;;;0.60;;
17059;SDS011;8646;49.716;9.266;2023-02-03T13:18:00;1.40;;;0.70;;
17059;SDS011;8646;49.716;9.266;2023-02-03T13:21:11;1.77;;;0.70;;
17059;SDS011;8646;49.716;9.266;2023-02-03T13:24:14;1.90;;;0.90;;
17059;SDS011;8646;49.716;9.266;2023-02-03T13:27:23;1.60;;;0.60;;
17059;SDS011;8646;49.716;9.266;2023-02-03T13:30:42;2.83;;;0.60;;
17059;SDS011;8646;49.716;9.266;2023-02-03T13:34:00;1.23;;;0.70;;
17059;SDS011;8646;49.716;9.266;2023-02-03T13:37:19;5.77;;;0.80;;
17059;SDS011;8646;49.716;9.266;2023-02-03T13:40:36;1.93;;;0.60;;
17059;SDS011;8646;49.716;9.266;2023-02-03T13:43:49;1.20;;;0.60;;
17059;SDS011;8646;49.716;9.266;2023-02-03T13:46:56;1.30;;;0.50;;
17059;SDS011;8646;49.716;9.266;2023-02-03T13:50:02;0.83;;;0.40;;
17059;SDS011;8646;49.716;9.266;2023-02-03T13:53:13;0.50;;;0.40;;
17059;SDS011;8646;49.716;9.266;2023-02-03T13:56:19;1.47;;;0.50;;
17059;SDS011;8646;49.716;9.266;2023-02-03T13:59:28;2.17;;;0.70;;
17059;SDS011;8646;49.716;9.266;2023-02-03T14:02:45;1.90;;;0.80;;
17059;SDS011;8646;49.716;9.266;2023-02-03T14:05:54;0.40;;;0.30;;
17059;SDS011;8646;49.716;9.266;2023-02-03T14:08:58;0.80;;;0.60;;
17059;SDS011;8646;49.716;9.266;2023-02-03T14:15:36;1.00;;;0.70;;
17059;SDS011;8646;49.716;9.266;2023-02-03T14:18:47;1.53;;;0.50;;
17059;SDS011;8646;49.716;9.266;2023-02-03T14:21:50;1.07;;;0.57;;
17059;SDS011;8646;49.716;9.266;2023-02-03T14:24:56;1.87;;;0.57;;
17059;SDS011;8646;49.716;9.266;2023-02-03T14:28:06;1.60;;;0.57;;
17059;SDS011;8646;49.716;9.266;2023-02-03T14:31:20;1.53;;;0.60;;
17059;SDS011;8646;49.716;9.266;2023-02-03T14:34:28;1.00;;;0.60;;
17059;SDS011;8646;49.716;9.266;2023-02-03T14:37:32;1.07;;;0.63;;
17059;SDS011;8646;49.716;9.266;2023-02-03T14:40:37;0.67;;;0.50;;
17059;SDS011;8646;49.716;9.266;2023-02-03T14:43:48;1.03;;;0.67;;
17059;SDS011;8646;49.716;9.266;2023-02-03T14:47:10;0.50;;;0.40;;
17059;SDS011;8646;49.716;9.266;2023-02-03T14:50:29;1.10;;;0.50;;
17059;SDS011;8646;49.716;9.266;2023-02-03T14:53:46;1.87;;;0.73;;
17059;SDS011;8646;49.716;9.266;2023-02-03T14:57:04;3.27;;;1.93;;
17059;SDS011;8646;49.716;9.266;2023-02-03T15:00:30;2.33;;;1.37;;
17059;SDS011;8646;49.716;9.266;2023-02-03T15:03:34;1.37;;;0.87;;
17059;SDS011;8646;49.716;9.266;2023-02-03T15:06:44;1.70;;;1.10;;
17059;SDS011;8646;49.716;9.266;2023-02-03T15:09:47;2.27;;;1.37;;
17059;SDS011;8646;49.716;9.266;2023-02-03T15:12:53;1.53;;;1.00;;
17059;SDS011;8646;49.716;9.266;2023-02-03T15:15:59;9.00;;;5.13;;
17059;SDS011;8646;49.716;9.266;2023-02-03T15:19:13;27.20;;;13.27;;
17059;SDS011;8646;49.716;9.266;2023-02-03T15:22:20;6.70;;;3.93;;
17059;SDS011;8646;49.716;9.266;2023-02-03T15:25:27;1.60;;;0.83;;
17059;SDS011;8646;49.716;9.266;2023-02-03T15:28:33;1.40;;;0.80;;
17059;SDS011;8646;49.716;9.266;2023-02-03T15:31:36;2.53;;;0.90;;
17059;SDS011;8646;49.716;9.266;2023-02-03T15:34:42;0.80;;;0.70;;
17059;SDS011;8646;49.716;9.266;2023-02-03T15:37:48;2.03;;;0.93;;
17059;SDS011;8646;49.716;9.266;2023-02-03T15:40:54;1.10;;;0.70;;
17059;SDS011;8646;49.716;9.266;2023-02-03T15:44:00;1.83;;;0.80;;
17059;SDS011;8646;49.716;9.266;2023-02-03T15:47:15;2.10;;;0.83;;
17059;SDS011;8646;49.716;9.266;2023-02-03T15:50:25;1.83;;;0.70;;
17059;SDS011;8646;49.716;9.266;2023-02-03T15:53:33;2.77;;;0.50;;
17059;SDS011;8646;49.716;9.266;2023-02-03T15:56:48;1.60;;;1.13;;
17059;SDS011;8646;49.716;9.266;2023-02-03T15:59:57;0.73;;;0.60;;
17059;SDS011;8646;49.716;9.266;2023-02-03T16:03:04;1.40;;;0.60;;
17059;SDS011;8646;49.716;9.266;2023-02-03T16:06:17;1.23;;;0.70;;
17059;SDS011;8646;49.716;9.266;2023-02-03T16:09:26;1.60;;;0.80;;
17059;SDS011;8646;49.716;9.266;2023-02-03T16:12:31;1.03;;;0.73;;
17059;SDS011;8646;49.716;9.266;2023-02-03T16:15:35;2.97;;;1.20;;
17059;SDS011;8646;49.716;9.266;2023-02-03T16:18:47;3.30;;;1.20;;
17059;SDS011;8646;49.716;9.266;2023-02-03T16:21:57;3.00;;;1.30;;
17059;SDS011;8646;49.716;9.266;2023-02-03T16:25:12;4.07;;;1.43;;
17059;SDS011;8646;49.716;9.266;2023-02-03T16:28:17;2.00;;;1.23;;
17059;SDS011;8646;49.716;9.266;2023-02-03T16:31:39;1.77;;;1.10;;
17059;SDS011;8646;49.716;9.266;2023-02-03T16:35:10;3.27;;;1.00;;
17059;SDS011;8646;49.716;9.266;2023-02-03T16:38:31;4.03;;;1.20;;
17059;SDS011;8646;49.716;9.266;2023-02-03T16:41:56;2.23;;;1.30;;
17059;SDS011;8646;49.716;9.266;2023-02-03T16:45:17;2.93;;;1.80;;
17059;SDS011;8646;49.716;9.266;2023-02-03T16:48:37;2.20;;;1.33;;
17059;SDS011;8646;49.716;9.266;2023-02-03T16:51:58;2.47;;;1.43;;
17059;SDS011;8646;49.716;9.266;2023-02-03T16:55:01;2.03;;;1.10;;
17059;SDS011;8646;49.716;9.266;2023-02-03T16:58:05;1.20;;;0.80;;
17059;SDS011;8646;49.716;9.266;2023-02-03T17:01:11;1.47;;;1.00;;
17059;SDS011;8646;49.716;9.266;2023-02-03T17:04:14;2.43;;;1.00;;
17059;SDS011;8646;49.716;9.266;2023-02-03T17:07:17;1.63;;;0.93;;
17059;SDS011;8646;49.716;9.266;2023-02-03T17:10:20;2.17;;;0.87;;
17059;SDS011;8646;49.716;9.266;2023-02-03T17:13:24;2.57;;;1.00;;
17059;SDS011;8646;49.716;9.266;2023-02-03T17:16:26;1.83;;;1.00;;
17059;SDS011;8646;49.716;9.266;2023-02-03T17:19:30;1.80;;;0.90;;
17059;SDS011;8646;49.716;9.266;2023-02-03T17:22:34;1.50;;;0.90;;
17059;SDS011;8646;49.716;9.266;2023-02-03T17:25:37;1.00;;;0.80;;
17059;SDS011;8646;49.716;9.266;2023-02-03T17:28:42;1.50;;;0.90;;
17059;SDS011;8646;49.716;9.266;2023-02-03T17:31:45;2.00;;;1.17;;
17059;SDS011;8646;49.716;9.266;2023-02-03T17:34:48;1.27;;;0.80;;
17059;SDS011;8646;49.716;9.266;2023-02-03T17:37:50;1.30;;;0.73;;
17059;SDS011;8646;49.716;9.266;2023-02-03T17:40:54;1.23;;;0.90;;
17059;SDS011;8646;49.716;9.266;2023-02-03T17:44:16;1.10;;;0.90;;
17059;SDS011;8646;49.716;9.266;2023-02-03T17:47:36;1.80;;;1.00;;
17059;SDS011;8646;49.716;9.266;2023-02-03T17:51:03;1.40;;;0.77;;
17059;SDS011;8646;49.716;9.266;2023-02-03T17:54:24;1.60;;;1.00;;
17059;SDS011;8646;49.716;9.266;2023-02-03T17:57:27;1.07;;;0.93;;
17059;SDS011;8646;49.716;9.266;2023-02-03T18:00:32;1.57;;;0.97;;
17059;SDS011;8646;49.716;9.266;2023-02-03T18:03:35;2.80;;;1.10;;
17059;SDS011;8646;49.716;9.266;2023-02-03T18:06:37;4.07;;;2.40;;
17059;SDS011;8646;49.716;9.266;2023-02-03T18:09:40;3.57;;;1.90;;
17059;SDS011;8646;49.716;9.266;2023-02-03T18:12:44;2.00;;;1.50;;
17059;SDS011;8646;49.716;9.266;2023-02-03T18:15:50;2.43;;;1.40;;
17059;SDS011;8646;49.716;9.266;2023-02-03T18:18:54;3.57;;;1.87;;
17059;SDS011;8646;49.716;9.266;2023-02-03T18:21:57;3.53;;;1.80;;
17059;SDS011;8646;49.716;9.266;2023-02-03T18:25:01;3.60;;;2.30;;
17059;SDS011;8646;49.716;9.266;2023-02-03T18:28:03;6.17;;;3.50;;
17059;SDS011;8646;49.716;9.266;2023-02-03T18:31:08;3.23;;;1.90;;
17059;SDS011;8646;49.716;9.266;2023-02-03T18:34:13;4.83;;;2.10;;
17059;SDS011;8646;49.716;9.266;2023-02-03T18:37:17;3.83;;;1.70;;
17059;SDS011;8646;49.716;9.266;2023-02-03T18:40:20;3.40;;;2.00;;
17059;SDS011;8646;49.716;9.266;2023-02-03T18:43:22;3.57;;;1.70;;
17059;SDS011;8646;49.716;9.266;2023-02-03T18:46:27;3.10;;;1.60;;
17059;SDS011;8646;49.716;9.266;2023-02-03T18:49:32;2.40;;;1.70;;
17059;SDS011;8646;49.716;9.266;2023-02-03T18:52:36;2.40;;;1.80;;
17059;SDS011;8646;49.716;9.266;2023-02-03T18:55:46;4.13;;;2.10;;
17059;SDS011;8646;49.716;9.266;2023-02-03T18:58:52;4.10;;;1.80;;
17059;SDS011;8646;49.716;9.266;2023-02-03T19:01:56;2.23;;;1.70;;
17059;SDS011;8646;49.716;9.266;2023-02-03T19:04:59;7.90;;;2.70;;
17059;SDS011;8646;49.716;9.266;2023-02-03T19:08:07;4.20;;;2.20;;
17059;SDS011;8646;49.716;9.266;2023-02-03T19:11:11;6.23;;;1.50;;
17059;SDS011;8646;49.716;9.266;2023-02-03T19:14:14;5.47;;;2.10;;
17059;SDS011;8646;49.716;9.266;2023-02-03T19:17:22;2.73;;;1.67;;
17059;SDS011;8646;49.716;9.266;2023-02-03T19:20:30;2.37;;;1.63;;
17059;SDS011;8646;49.716;9.266;2023-02-03T19:23:34;3.03;;;1.33;;